createdAt,value
2019-03-06T00:00:14.921Z,97.00
2019-03-06T00:02:44.358Z,97.00
2019-03-06T00:05:12.513Z,97.00
2019-03-06T00:07:39.949Z,97.00
2019-03-06T00:10:21.403Z,97.30
2019-03-06T00:12:48.853Z,97.10
2019-03-06T00:15:16.378Z,97.00
2019-03-06T00:17:43.966Z,97.00
2019-03-06T00:20:11.553Z,97.10
2019-03-06T00:22:38.895Z,97.10
2019-03-06T00:25:06.338Z,97.20
2019-03-06T00:27:34.204Z,97.20
2019-03-06T00:30:01.669Z,97.30
2019-03-06T00:32:29.606Z,97.40
2019-03-06T00:34:58.974Z,97.40
2019-03-06T00:37:26.365Z,97.40
2019-03-06T00:40:00.471Z,97.50
2019-03-06T00:42:30.922Z,97.50
2019-03-06T00:44:58.357Z,97.50
2019-03-06T00:47:25.875Z,97.70
2019-03-06T00:49:53.278Z,97.70
2019-03-06T00:52:20.818Z,97.80
2019-03-06T00:54:48.258Z,97.70
2019-03-06T00:57:15.742Z,97.70
2019-03-06T00:59:43.242Z,97.80
2019-03-06T01:02:10.829Z,97.80
2019-03-06T01:04:38.424Z,97.80
2019-03-06T01:07:05.933Z,98.00
2019-03-06T01:09:33.534Z,98.00
2019-03-06T01:12:00.914Z,98.00
2019-03-06T01:14:28.495Z,98.00
2019-03-06T01:16:57.211Z,98.00
2019-03-06T01:19:24.806Z,98.10
2019-03-06T01:21:52.333Z,98.20
2019-03-06T01:24:19.950Z,98.20
2019-03-06T01:26:47.660Z,98.20
2019-03-06T01:29:16.122Z,98.30
2019-03-06T01:32:02.987Z,98.30
2019-03-06T01:34:44.607Z,98.30
2019-03-06T01:37:43.376Z,98.70
2019-03-06T01:40:18.924Z,98.40
2019-03-06T01:42:53.719Z,98.40
2019-03-06T01:45:30.121Z,98.40
2019-03-06T01:47:57.391Z,98.50
2019-03-06T01:50:24.736Z,98.60
2019-03-06T01:52:52.105Z,98.70
2019-03-06T01:55:19.524Z,98.70
2019-03-06T01:57:46.927Z,98.80
2019-03-06T02:00:16.728Z,98.80
2019-03-06T02:02:44.297Z,98.80
2019-03-06T02:05:12.056Z,98.80
2019-03-06T02:07:40.972Z,98.80
2019-03-06T02:10:08.340Z,98.90
2019-03-06T02:12:37.553Z,98.90
2019-03-06T02:15:05.214Z,99.90
2019-03-06T02:17:33.340Z,99.80
2019-03-06T02:20:00.844Z,99.80
2019-03-06T02:22:28.217Z,99.80
2019-03-06T02:24:55.517Z,99.80
2019-03-06T02:27:22.876Z,99.80
2019-03-06T02:29:50.353Z,99.80
2019-03-06T02:32:17.880Z,99.80
2019-03-06T02:34:45.128Z,99.80
2019-03-06T02:37:12.380Z,99.90
2019-03-06T02:39:39.710Z,99.90
2019-03-06T02:42:07.043Z,99.90
2019-03-06T02:44:34.823Z,99.90
2019-03-06T02:47:02.305Z,99.90
2019-03-06T02:49:29.677Z,99.90
2019-03-06T02:51:57.608Z,99.90
2019-03-06T02:54:25.225Z,99.90
2019-03-06T02:56:52.521Z,99.90
2019-03-06T02:59:25.488Z,99.90
2019-03-06T03:02:12.728Z,99.90
2019-03-06T03:05:00.447Z,99.90
2019-03-06T03:07:28.346Z,99.90
2019-03-06T03:09:55.781Z,99.90
2019-03-06T03:12:23.153Z,99.90
2019-03-06T03:14:50.653Z,99.90
2019-03-06T03:17:18.042Z,99.90
2019-03-06T03:19:45.968Z,99.90
2019-03-06T03:22:13.240Z,99.90
2019-03-06T03:24:40.610Z,99.90
2019-03-06T03:27:09.064Z,99.90
2019-03-06T03:29:49.532Z,99.90
2019-03-06T03:32:17.207Z,99.90
2019-03-06T03:34:44.755Z,99.90
2019-03-06T03:37:12.362Z,99.90
2019-03-06T03:39:39.920Z,99.90
2019-03-06T03:42:07.483Z,99.90
2019-03-06T03:44:34.792Z,99.90
2019-03-06T03:47:02.548Z,99.90
2019-03-06T03:49:30.167Z,99.90
2019-03-06T03:51:57.551Z,99.90
2019-03-06T03:54:25.020Z,99.90
2019-03-06T03:56:52.573Z,99.90
2019-03-06T03:59:20.011Z,99.90
2019-03-06T04:01:47.569Z,99.90
2019-03-06T04:04:14.978Z,99.90
2019-03-06T04:06:42.393Z,99.90
2019-03-06T04:09:09.906Z,99.90
2019-03-06T04:11:37.483Z,99.90
2019-03-06T04:14:05.108Z,99.90
2019-03-06T04:16:32.721Z,99.90
2019-03-06T04:19:00.402Z,99.90
2019-03-06T04:21:28.010Z,99.90
2019-03-06T04:23:56.348Z,99.90
2019-03-06T04:26:23.867Z,99.90
2019-03-06T04:28:51.419Z,99.90
2019-03-06T04:31:19.363Z,99.90
2019-03-06T04:34:06.380Z,99.90
2019-03-06T04:36:34.050Z,99.90
2019-03-06T04:39:01.530Z,99.90
2019-03-06T04:41:31.199Z,99.90
2019-03-06T04:43:58.591Z,99.90
2019-03-06T04:46:26.299Z,99.90
2019-03-06T04:48:53.726Z,99.90
2019-03-06T04:51:21.349Z,99.90
2019-03-06T04:53:49.058Z,99.90
2019-03-06T04:56:17.587Z,99.90
2019-03-06T04:58:44.890Z,99.90
2019-03-06T05:01:12.418Z,99.90
2019-03-06T05:03:40.165Z,99.90
2019-03-06T05:06:08.814Z,99.90
2019-03-06T05:08:36.277Z,99.90
2019-03-06T05:11:04.018Z,99.90
2019-03-06T05:13:31.540Z,99.90
2019-03-06T05:15:59.104Z,99.90
2019-03-06T05:18:51.154Z,99.90
2019-03-06T05:21:18.721Z,99.90
2019-03-06T05:23:46.169Z,99.90
2019-03-06T05:26:13.731Z,99.90
2019-03-06T05:28:41.362Z,99.90
2019-03-06T05:31:08.937Z,99.90
2019-03-06T05:33:36.474Z,99.90
2019-03-06T05:36:29.347Z,99.90
2019-03-06T05:39:10.649Z,99.90
2019-03-06T05:41:38.279Z,99.90
2019-03-06T05:44:06.190Z,99.90
2019-03-06T05:46:33.738Z,99.90
2019-03-06T05:49:01.259Z,99.90
2019-03-06T05:51:28.756Z,99.90
2019-03-06T05:53:56.615Z,99.90
2019-03-06T05:56:24.245Z,99.90
2019-03-06T05:58:51.697Z,99.90
2019-03-06T06:01:19.215Z,99.90
2019-03-06T06:03:46.946Z,99.90
2019-03-06T06:06:14.346Z,99.90
2019-03-06T06:08:41.882Z,99.90
2019-03-06T06:11:09.469Z,99.90
2019-03-06T06:13:36.958Z,99.90
2019-03-06T06:16:04.551Z,99.90
2019-03-06T06:18:34.279Z,99.90
2019-03-06T06:21:13.430Z,99.90
2019-03-06T06:23:45.511Z,99.90
2019-03-06T06:26:12.982Z,99.90
2019-03-06T06:28:40.509Z,99.90
2019-03-06T06:31:08.050Z,99.90
2019-03-06T06:33:35.677Z,99.90
2019-03-06T06:36:04.841Z,99.90
2019-03-06T06:38:32.299Z,99.90
2019-03-06T06:41:00.421Z,99.90
2019-03-06T06:43:27.969Z,99.90
2019-03-06T06:45:55.661Z,99.90
2019-03-06T06:48:24.270Z,99.90
2019-03-06T06:52:01.203Z,99.90
2019-03-06T06:54:35.955Z,99.90
2019-03-06T06:57:23.032Z,99.90
2019-03-06T07:01:10.157Z,99.90
2019-03-06T07:04:16.631Z,99.90
2019-03-06T07:07:06.115Z,99.90
2019-03-06T07:09:51.928Z,99.90
2019-03-06T07:12:39.265Z,99.90
2019-03-06T07:15:30.417Z,99.90
2019-03-06T07:18:17.677Z,99.90
2019-03-06T07:20:54.148Z,99.90
2019-03-06T07:23:47.430Z,99.90
2019-03-06T07:26:25.547Z,99.90
2019-03-06T07:29:11.446Z,99.90
2019-03-06T07:31:49.526Z,99.90
2019-03-06T07:34:31.173Z,99.90
2019-03-06T07:37:04.251Z,99.90
2019-03-06T07:39:46.651Z,99.90
2019-03-06T07:42:39.258Z,99.90
2019-03-06T07:46:05.641Z,99.90
2019-03-06T07:48:52.399Z,99.90
2019-03-06T07:51:42.690Z,99.90
2019-03-06T07:54:28.286Z,99.90
2019-03-06T07:57:24.601Z,99.90
2019-03-06T07:59:52.086Z,99.90
2019-03-06T08:02:21.944Z,99.90
2019-03-06T08:04:53.386Z,99.90
2019-03-06T08:07:21.051Z,99.90
2019-03-06T08:09:49.168Z,99.90
2019-03-06T08:12:36.202Z,99.90
2019-03-06T08:15:22.682Z,99.90
2019-03-06T08:18:05.407Z,99.90
2019-03-06T08:20:50.142Z,99.90
2019-03-06T08:23:32.848Z,99.90
2019-03-06T08:26:00.330Z,99.90
2019-03-06T08:28:28.129Z,99.90
2019-03-06T08:31:06.767Z,99.90
2019-03-06T08:33:34.302Z,99.90
2019-03-06T08:36:03.550Z,99.90
2019-03-06T08:38:31.058Z,99.90
2019-03-06T08:41:04.429Z,99.90
2019-03-06T08:43:27.954Z,99.90
2019-03-06T08:46:20.658Z,99.90
2019-03-06T08:49:03.973Z,99.90
2019-03-06T08:51:47.207Z,99.90
2019-03-06T08:54:29.729Z,99.90
2019-03-06T08:57:04.187Z,99.90
2019-03-06T08:59:52.651Z,99.90
2019-03-06T09:02:39.317Z,99.90
2019-03-06T09:05:27.294Z,99.90
2019-03-06T09:08:26.187Z,99.90
2019-03-06T09:11:03.101Z,99.90
2019-03-06T09:13:49.094Z,99.90
2019-03-06T09:16:37.092Z,99.90
2019-03-06T09:19:42.219Z,99.90
2019-03-06T09:22:30.432Z,99.90
2019-03-06T09:25:32.539Z,99.90
2019-03-06T09:28:22.393Z,99.90
2019-03-06T09:31:12.527Z,99.90
2019-03-06T09:33:54.143Z,99.90
2019-03-06T09:36:32.528Z,99.90
2019-03-06T09:39:19.062Z,99.90
2019-03-06T09:42:06.060Z,99.90
2019-03-06T09:45:05.305Z,99.90
2019-03-06T09:47:37.783Z,99.90
2019-03-06T09:50:34.269Z,99.90
2019-03-06T09:53:27.629Z,99.90
2019-03-06T09:56:13.397Z,99.90
2019-03-06T09:59:02.858Z,99.90
2019-03-06T10:01:53.043Z,99.90
2019-03-06T10:04:43.305Z,99.90
2019-03-06T10:07:36.597Z,99.90
2019-03-06T10:10:26.545Z,99.90
2019-03-06T10:13:12.498Z,99.90
2019-03-06T10:15:59.487Z,99.90
2019-03-06T10:18:35.245Z,99.90
2019-03-06T10:21:02.866Z,99.90
2019-03-06T10:23:31.390Z,99.90
2019-03-06T10:26:01.408Z,99.90
2019-03-06T10:28:29.050Z,99.90
2019-03-06T10:31:02.288Z,99.90
2019-03-06T10:33:25.822Z,99.90
2019-03-06T10:35:53.263Z,99.90
2019-03-06T10:38:20.930Z,99.90
2019-03-06T10:40:48.366Z,99.90
2019-03-06T10:43:15.899Z,99.90
2019-03-06T10:45:43.449Z,99.90
2019-03-06T10:48:11.189Z,99.90
2019-03-06T10:50:38.750Z,99.90
2019-03-06T10:53:06.318Z,99.90
2019-03-06T10:55:34.769Z,99.90
2019-03-06T10:58:02.837Z,99.90
2019-03-06T11:00:33.263Z,99.90
2019-03-06T11:03:01.395Z,99.90
2019-03-06T11:05:32.375Z,99.90
2019-03-06T11:08:00.393Z,99.90
2019-03-06T11:10:30.168Z,99.90
2019-03-06T11:12:58.406Z,99.90
2019-03-06T11:15:26.244Z,99.90
2019-03-06T11:17:54.130Z,99.90
2019-03-06T11:20:25.158Z,99.90
2019-03-06T11:22:54.816Z,99.90
2019-03-06T11:25:22.872Z,99.90
2019-03-06T11:27:51.810Z,99.90
2019-03-06T11:30:26.194Z,99.90
2019-03-06T11:32:54.509Z,99.90
2019-03-06T11:35:23.974Z,99.90
2019-03-06T11:37:52.255Z,99.90
2019-03-06T11:40:21.591Z,99.90
2019-03-06T11:42:49.757Z,99.90
2019-03-06T11:45:17.646Z,99.90
2019-03-06T11:47:45.745Z,99.90
2019-03-06T11:50:13.872Z,99.80
2019-03-06T11:52:41.532Z,99.70
2019-03-06T11:55:10.034Z,99.50
2019-03-06T11:57:38.181Z,99.30
2019-03-06T12:00:10.083Z,98.70
2019-03-06T12:02:37.980Z,98.50
2019-03-06T12:05:06.082Z,98.20
2019-03-06T12:07:33.640Z,98.00
2019-03-06T12:10:01.156Z,97.50
2019-03-06T12:12:29.002Z,97.20
2019-03-06T12:14:57.707Z,96.40
2019-03-06T12:17:25.184Z,96.20
2019-03-06T12:19:52.914Z,95.30
2019-03-06T12:22:20.564Z,95.30
2019-03-06T12:24:48.068Z,95.10
2019-03-06T12:27:15.582Z,95.10
2019-03-06T12:29:43.336Z,94.90
2019-03-06T12:32:11.316Z,94.80
2019-03-06T12:34:38.861Z,95.00
2019-03-06T12:37:07.818Z,94.90
2019-03-06T12:39:35.329Z,95.10
2019-03-06T12:42:02.960Z,95.00
2019-03-06T12:44:30.535Z,94.90
2019-03-06T12:46:59.028Z,94.90
2019-03-06T12:49:27.787Z,94.70
2019-03-06T12:51:55.392Z,94.70
2019-03-06T12:54:22.873Z,94.50
2019-03-06T12:56:50.557Z,94.40
2019-03-06T12:59:17.995Z,94.50
2019-03-06T13:01:45.740Z,94.40
2019-03-06T13:04:13.094Z,94.40
2019-03-06T13:06:40.510Z,94.20
2019-03-06T13:09:18.962Z,93.90
2019-03-06T13:11:46.489Z,93.70
2019-03-06T13:14:14.298Z,93.70
2019-03-06T13:16:42.002Z,93.60
2019-03-06T13:19:09.378Z,93.40
2019-03-06T13:21:37.043Z,93.40
2019-03-06T13:24:04.517Z,93.30
2019-03-06T13:26:32.021Z,93.20
2019-03-06T13:28:59.773Z,93.10
2019-03-06T13:31:27.369Z,93.00
2019-03-06T13:34:00.181Z,93.10
2019-03-06T13:36:27.751Z,93.10
2019-03-06T13:39:05.786Z,93.00
2019-03-06T13:41:24.477Z,92.90
2019-03-06T13:43:51.994Z,92.90
2019-03-06T13:46:19.434Z,92.90
2019-03-06T13:48:47.075Z,92.80
2019-03-06T13:51:14.685Z,92.90
2019-03-06T13:53:43.186Z,92.70
2019-03-06T13:56:10.767Z,92.60
2019-03-06T13:58:38.215Z,92.30
2019-03-06T14:01:07.677Z,92.20
2019-03-06T14:03:35.046Z,92.20
2019-03-06T14:06:02.539Z,92.10
2019-03-06T14:08:31.648Z,92.10
2019-03-06T14:11:00.454Z,92.10
2019-03-06T14:13:27.896Z,92.10
2019-03-06T14:15:57.005Z,92.10
2019-03-06T14:18:24.567Z,92.10
2019-03-06T14:20:52.882Z,92.10
2019-03-06T14:23:20.421Z,92.10
2019-03-06T14:25:47.994Z,92.00
2019-03-06T14:28:15.925Z,91.90
2019-03-06T14:30:43.738Z,91.80
2019-03-06T14:33:11.259Z,91.70
2019-03-06T14:35:38.798Z,91.40
2019-03-06T14:38:06.949Z,91.30
2019-03-06T14:40:34.650Z,90.60
2019-03-06T14:43:03.222Z,90.60
2019-03-06T14:45:30.940Z,90.60
2019-03-06T14:47:59.725Z,90.40
2019-03-06T14:50:27.329Z,90.50
2019-03-06T14:52:54.859Z,90.30
2019-03-06T14:55:22.355Z,90.10
2019-03-06T14:57:50.955Z,90.30
2019-03-06T15:00:19.107Z,90.00
2019-03-06T15:02:46.696Z,90.10
2019-03-06T15:05:14.899Z,90.10
2019-03-06T15:07:42.415Z,90.10
2019-03-06T15:10:11.607Z,90.20
2019-03-06T15:12:39.013Z,90.30
2019-03-06T15:15:07.937Z,90.30
2019-03-06T15:17:35.481Z,90.40
2019-03-06T15:20:02.955Z,90.40
2019-03-06T15:22:38.378Z,90.50
2019-03-06T15:24:59.758Z,90.50
2019-03-06T15:27:27.321Z,90.60
2019-03-06T15:29:54.730Z,90.70
2019-03-06T15:32:22.310Z,90.90
2019-03-06T15:34:49.798Z,91.10
2019-03-06T15:37:17.379Z,91.20
2019-03-06T15:39:48.537Z,91.30
2019-03-06T15:42:14.850Z,91.50
2019-03-06T15:44:42.334Z,91.70
2019-03-06T15:47:09.685Z,91.80
2019-03-06T15:49:37.314Z,92.00
2019-03-06T15:52:07.400Z,92.20
2019-03-06T15:54:34.901Z,92.40
2019-03-06T15:57:03.761Z,92.60
2019-03-06T15:59:31.480Z,92.80
2019-03-06T16:02:01.361Z,93.00
2019-03-06T16:04:28.925Z,93.20
2019-03-06T16:06:56.759Z,93.70
2019-03-06T16:09:24.246Z,93.80
2019-03-06T16:11:52.084Z,94.50
2019-03-06T16:14:20.222Z,94.10
2019-03-06T16:16:47.638Z,94.10
2019-03-06T16:19:15.162Z,94.30
2019-03-06T16:21:43.518Z,94.30
2019-03-06T16:24:10.886Z,94.50
2019-03-06T16:26:38.315Z,94.50
2019-03-06T16:29:05.902Z,94.70
2019-03-06T16:31:33.374Z,94.80
2019-03-06T16:34:01.710Z,94.90
2019-03-06T16:36:29.164Z,95.10
2019-03-06T16:38:56.569Z,95.10
2019-03-06T16:41:25.316Z,95.20
2019-03-06T16:43:52.979Z,95.30
2019-03-06T16:46:20.779Z,95.50
2019-03-06T16:48:48.151Z,95.60
2019-03-06T16:51:15.633Z,95.60
2019-03-06T16:53:43.272Z,95.90
2019-03-06T16:56:10.836Z,95.80
2019-03-06T16:58:38.280Z,95.90
2019-03-06T17:01:07.070Z,95.90
2019-03-06T17:03:34.622Z,95.90
2019-03-06T17:06:02.332Z,95.90
2019-03-06T17:08:30.034Z,95.90
2019-03-06T17:10:57.580Z,95.90
2019-03-06T17:13:25.067Z,95.90
2019-03-06T17:15:52.680Z,96.00
2019-03-06T17:18:20.101Z,95.80
2019-03-06T17:20:47.446Z,95.70
2019-03-06T17:23:14.910Z,95.70
2019-03-06T17:25:42.444Z,95.70
2019-03-06T17:28:09.930Z,95.60
2019-03-06T17:30:38.325Z,95.60
2019-03-06T17:33:06.806Z,95.50
2019-03-06T17:35:34.328Z,95.60
2019-03-06T17:38:02.714Z,95.50
2019-03-06T17:40:30.432Z,95.50
2019-03-06T17:42:58.138Z,95.50
2019-03-06T17:45:26.266Z,95.50
2019-03-06T17:47:53.813Z,95.50
2019-03-06T17:50:21.553Z,95.50
2019-03-06T17:52:49.189Z,95.50
2019-03-06T17:55:16.775Z,95.50
2019-03-06T17:57:44.449Z,95.60
2019-03-06T18:00:17.154Z,95.50
2019-03-06T18:02:44.078Z,95.50
2019-03-06T18:05:11.905Z,95.60
2019-03-06T18:07:39.867Z,95.60
2019-03-06T18:10:09.644Z,95.60
2019-03-06T18:12:37.181Z,95.70
2019-03-06T18:15:06.470Z,95.70
2019-03-06T18:17:34.166Z,96.20
2019-03-06T18:20:01.984Z,96.00
2019-03-06T18:22:29.717Z,96.10
2019-03-06T18:24:57.254Z,96.10
2019-03-06T18:27:26.595Z,96.20
2019-03-06T18:29:54.042Z,96.20
2019-03-06T18:32:23.604Z,96.40
2019-03-06T18:34:50.937Z,96.40
2019-03-06T18:37:18.770Z,96.50
2019-03-06T18:39:46.295Z,96.50
2019-03-06T18:42:13.847Z,96.60
2019-03-06T18:44:41.249Z,96.70
2019-03-06T18:47:08.769Z,96.90
2019-03-06T18:49:36.244Z,96.60
2019-03-06T18:52:03.697Z,96.60
2019-03-06T18:54:32.365Z,96.70
2019-03-06T18:57:00.083Z,96.60
2019-03-06T18:59:27.487Z,97.00
2019-03-06T19:01:54.903Z,97.00
2019-03-06T19:04:22.485Z,96.80
2019-03-06T19:06:49.861Z,96.70
2019-03-06T19:09:17.386Z,96.70
2019-03-06T19:11:46.525Z,96.70
2019-03-06T19:14:14.354Z,96.70
2019-03-06T19:16:41.914Z,96.60
2019-03-06T19:19:09.425Z,96.50
2019-03-06T19:21:37.016Z,96.40
2019-03-06T19:24:04.653Z,96.40
2019-03-06T19:26:32.423Z,96.30
2019-03-06T19:28:59.865Z,96.20
2019-03-06T19:31:27.673Z,96.10
2019-03-06T19:33:55.266Z,96.00
2019-03-06T19:36:22.836Z,95.90
2019-03-06T19:38:50.369Z,95.80
2019-03-06T19:41:17.955Z,95.80
2019-03-06T19:43:45.590Z,95.80
2019-03-06T19:46:13.302Z,95.80
2019-03-06T19:48:41.061Z,95.60
2019-03-06T19:51:11.489Z,95.80
2019-03-06T19:53:39.194Z,95.40
2019-03-06T19:56:06.694Z,95.40
2019-03-06T19:58:34.235Z,95.30
2019-03-06T20:01:02.220Z,95.30
2019-03-06T20:03:32.224Z,95.30
2019-03-06T20:05:59.478Z,95.20
2019-03-06T20:08:27.191Z,95.30
2019-03-06T20:10:54.597Z,95.30
2019-03-06T20:13:22.155Z,95.30
2019-03-06T20:15:49.703Z,95.30
2019-03-06T20:18:17.354Z,95.30
2019-03-06T20:20:46.174Z,95.30
2019-03-06T20:23:14.034Z,95.30
2019-03-06T20:25:41.873Z,95.40
2019-03-06T20:28:09.746Z,95.50
2019-03-06T20:30:37.887Z,95.50
2019-03-06T20:33:06.212Z,95.50
2019-03-06T20:35:33.823Z,95.90
2019-03-06T20:38:02.059Z,95.60
2019-03-06T20:40:29.893Z,95.60
2019-03-06T20:42:57.602Z,95.60
2019-03-06T20:45:25.186Z,95.70
2019-03-06T20:47:53.548Z,95.70
2019-03-06T20:50:21.484Z,95.80
2019-03-06T20:52:50.464Z,95.90
2019-03-06T20:55:18.292Z,95.90
2019-03-06T20:57:45.831Z,96.00
2019-03-06T21:00:15.029Z,96.10
2019-03-06T21:02:42.838Z,96.10
2019-03-06T21:05:10.681Z,96.20
2019-03-06T21:07:44.997Z,96.20
2019-03-06T21:10:08.187Z,96.20
2019-03-06T21:12:35.822Z,96.30
2019-03-06T21:15:04.877Z,96.40
2019-03-06T21:17:34.764Z,96.50
2019-03-06T21:20:04.753Z,96.40
2019-03-06T21:22:32.449Z,96.50
2019-03-06T21:25:01.065Z,96.30
2019-03-06T21:27:28.794Z,96.30
2019-03-06T21:29:56.247Z,96.40
2019-03-06T21:32:24.383Z,96.40
2019-03-06T21:34:52.377Z,96.50
2019-03-06T21:37:20.358Z,96.60
2019-03-06T21:39:48.118Z,96.60
2019-03-06T21:42:16.464Z,96.70
2019-03-06T21:44:45.354Z,96.70
2019-03-06T21:47:14.114Z,96.70
2019-03-06T21:49:43.118Z,96.80
2019-03-06T21:52:11.128Z,96.90
2019-03-06T21:54:39.159Z,96.90
2019-03-06T21:57:06.825Z,97.00
2019-03-06T21:59:34.421Z,97.10
2019-03-06T22:02:02.958Z,97.10
2019-03-06T22:04:33.271Z,97.20
2019-03-06T22:06:59.895Z,97.60
2019-03-06T22:09:28.539Z,97.50
2019-03-06T22:11:55.945Z,97.50
2019-03-06T22:14:23.673Z,97.50
2019-03-06T22:16:51.799Z,97.60
2019-03-06T22:19:19.649Z,97.60
2019-03-06T22:21:47.373Z,97.60
2019-03-06T22:24:14.969Z,97.70
2019-03-06T22:26:42.506Z,97.70
2019-03-06T22:29:09.872Z,97.80
2019-03-06T22:31:37.505Z,97.80
2019-03-06T22:34:05.174Z,98.00
2019-03-06T22:36:32.758Z,98.00
2019-03-06T22:39:00.998Z,98.00
2019-03-06T22:41:29.604Z,98.00
2019-03-06T22:43:57.310Z,98.10
2019-03-06T22:46:24.861Z,98.20
2019-03-06T22:48:52.359Z,98.70
2019-03-06T22:51:39.258Z,98.50
2019-03-06T22:54:07.105Z,98.50
2019-03-06T22:56:34.886Z,98.60
2019-03-06T22:59:03.060Z,98.60
2019-03-06T23:01:35.692Z,98.70
2019-03-06T23:04:04.885Z,98.80
2019-03-06T23:06:32.609Z,98.90
2019-03-06T23:09:00.057Z,99.00
2019-03-06T23:11:27.727Z,99.10
2019-03-06T23:13:55.272Z,99.30
2019-03-06T23:16:22.929Z,99.30
2019-03-06T23:18:50.628Z,99.40
2019-03-06T23:21:18.033Z,99.60
2019-03-06T23:23:45.543Z,99.70
2019-03-06T23:26:13.237Z,99.80
2019-03-06T23:28:41.403Z,99.80
2019-03-06T23:31:09.236Z,99.90
2019-03-06T23:33:36.861Z,99.90
2019-03-06T23:36:04.612Z,99.90
2019-03-06T23:38:32.407Z,99.90
2019-03-06T23:40:59.772Z,99.90
2019-03-06T23:43:28.335Z,99.90
2019-03-06T23:45:56.076Z,99.90
2019-03-06T23:48:23.939Z,99.90
2019-03-06T23:50:51.538Z,99.90
2019-03-06T23:53:37.584Z,99.90
2019-03-06T23:56:05.031Z,99.90
2019-03-06T23:58:32.560Z,99.90
